createdAt,value
2016-07-09T00:00:18.837Z,0
2016-07-09T00:01:18.792Z,0
2016-07-09T00:02:18.897Z,0
2016-07-09T00:03:18.831Z,0
2016-07-09T00:04:18.931Z,0
2016-07-09T00:05:18.870Z,0
2016-07-09T00:06:18.947Z,0
2016-07-09T00:07:18.919Z,0
2016-07-09T00:08:18.976Z,0
2016-07-09T00:09:18.953Z,0
2016-07-09T00:10:19.022Z,0
2016-07-09T00:11:19.009Z,0
2016-07-09T00:12:19.022Z,0
2016-07-09T00:13:19.050Z,0
2016-07-09T00:14:19.081Z,0
2016-07-09T00:15:19.087Z,0
2016-07-09T00:16:19.100Z,0
2016-07-09T00:17:19.121Z,0
2016-07-09T00:18:19.156Z,0
2016-07-09T00:19:19.165Z,0
2016-07-09T00:20:19.197Z,0
2016-07-09T00:21:19.203Z,0
2016-07-09T00:22:19.227Z,0
2016-07-09T00:23:19.240Z,0
2016-07-09T00:24:19.257Z,0
2016-07-09T00:25:19.302Z,0
2016-07-09T00:26:19.308Z,0
2016-07-09T00:27:19.318Z,0
2016-07-09T00:28:19.342Z,0
2016-07-09T00:29:19.366Z,0
2016-07-09T00:30:19.395Z,0
2016-07-09T00:31:19.408Z,0
2016-07-09T00:32:19.429Z,0
2016-07-09T00:33:19.439Z,0
2016-07-09T00:34:19.476Z,0
2016-07-09T00:35:19.488Z,0
2016-07-09T00:36:19.514Z,0
2016-07-09T00:37:19.531Z,0
2016-07-09T00:38:19.544Z,0
2016-07-09T00:39:19.560Z,0
2016-07-09T00:40:19.589Z,0
2016-07-09T00:41:19.603Z,0
2016-07-09T00:42:19.622Z,0
2016-07-09T00:43:19.645Z,0
2016-07-09T00:44:19.673Z,0
2016-07-09T00:45:19.683Z,0
2016-07-09T00:46:19.761Z,0
2016-07-09T00:47:19.717Z,0
2016-07-09T00:48:19.757Z,0
2016-07-09T00:49:20.384Z,0
2016-07-09T00:50:19.784Z,0
2016-07-09T00:51:19.798Z,0
2016-07-09T00:52:19.827Z,0
2016-07-09T00:53:19.839Z,0
2016-07-09T00:54:19.858Z,0
2016-07-09T00:55:19.918Z,0
2016-07-09T00:56:19.908Z,0
2016-07-09T00:57:19.912Z,0
2016-07-09T00:58:19.948Z,0
2016-07-09T00:59:19.962Z,0
2016-07-09T01:00:19.990Z,0
2016-07-09T01:01:19.997Z,0
2016-07-09T01:02:20.022Z,0
2016-07-09T01:03:20.050Z,0
2016-07-09T01:04:20.074Z,0
2016-07-09T01:05:20.112Z,0
2016-07-09T01:06:20.094Z,0
2016-07-09T01:07:20.136Z,0
2016-07-09T01:08:20.144Z,0
2016-07-09T01:09:20.166Z,0
2016-07-09T01:10:20.177Z,0
2016-07-09T01:11:20.198Z,0
2016-07-09T01:12:20.218Z,0
2016-07-09T01:13:20.237Z,0
2016-07-09T01:14:20.258Z,0
2016-07-09T01:15:20.283Z,0
2016-07-09T01:16:20.299Z,0
2016-07-09T01:17:20.308Z,0
2016-07-09T01:18:20.335Z,0
2016-07-09T01:19:20.367Z,0
2016-07-09T01:20:20.375Z,0
2016-07-09T01:21:20.406Z,0
2016-07-09T01:22:20.413Z,0
2016-07-09T01:23:20.425Z,0
2016-07-09T01:24:20.464Z,0
2016-07-09T01:25:20.488Z,0
2016-07-09T01:26:20.492Z,0
2016-07-09T01:27:20.510Z,0
2016-07-09T01:28:20.535Z,0
2016-07-09T01:29:20.552Z,0
2016-07-09T01:30:20.588Z,0
2016-07-09T01:31:20.594Z,0
2016-07-09T01:32:20.607Z,0
2016-07-09T01:33:20.632Z,0
2016-07-09T01:34:20.661Z,0
2016-07-09T01:35:20.671Z,0
2016-07-09T01:36:20.702Z,0
2016-07-09T01:37:20.701Z,0
2016-07-09T01:38:20.737Z,0
2016-07-09T01:39:20.746Z,0
2016-07-09T01:40:20.773Z,0
2016-07-09T01:41:20.796Z,0
2016-07-09T01:42:20.807Z,0
2016-07-09T01:43:20.822Z,0
2016-07-09T01:44:20.845Z,0
2016-07-09T01:45:20.869Z,0
2016-07-09T01:46:20.887Z,0
2016-07-09T01:47:20.916Z,0
2016-07-09T01:48:20.925Z,0
2016-07-09T01:49:20.957Z,0
2016-07-09T01:50:20.975Z,0
2016-07-09T01:51:20.984Z,0
2016-07-09T01:52:21.008Z,0
2016-07-09T01:53:21.034Z,0
2016-07-09T01:54:21.065Z,0
2016-07-09T01:55:21.065Z,0
2016-07-09T01:56:21.081Z,0
2016-07-09T01:57:21.111Z,0
2016-07-09T01:58:21.182Z,0
2016-07-09T01:59:21.142Z,0
2016-07-09T02:00:21.190Z,0
2016-07-09T02:01:21.182Z,0
2016-07-09T02:02:21.287Z,0
2016-07-09T02:03:21.221Z,0
2016-07-09T02:04:21.285Z,0
2016-07-09T02:05:21.253Z,0
2016-07-09T02:06:21.307Z,0
2016-07-09T02:07:21.306Z,0
2016-07-09T02:08:21.339Z,0
2016-07-09T02:09:21.349Z,0
2016-07-09T02:10:21.421Z,0
2016-07-09T02:11:21.375Z,0
2016-07-09T02:12:21.446Z,0
2016-07-09T02:13:21.422Z,0
2016-07-09T02:14:21.433Z,0
2016-07-09T02:15:21.457Z,0
2016-07-09T02:16:21.472Z,0
2016-07-09T02:17:21.493Z,0
2016-07-09T02:18:21.515Z,0
2016-07-09T02:19:21.533Z,0
2016-07-09T02:20:21.553Z,0
2016-07-09T02:21:21.641Z,0
2016-07-09T02:22:21.638Z,0
2016-07-09T02:23:21.615Z,0
2016-07-09T02:24:21.648Z,0
2016-07-09T02:25:21.646Z,0
2016-07-09T02:26:21.664Z,0
2016-07-09T02:27:21.680Z,0
2016-07-09T02:28:21.711Z,0
2016-07-09T02:29:21.729Z,0
2016-07-09T02:30:21.749Z,0
2016-07-09T02:31:21.766Z,0
2016-07-09T02:32:21.786Z,0
2016-07-09T02:33:21.816Z,0
2016-07-09T02:34:21.831Z,0
2016-07-09T02:35:21.854Z,0
2016-07-09T02:36:21.857Z,0
2016-07-09T02:37:21.888Z,0
2016-07-09T02:38:21.911Z,0
2016-07-09T02:39:21.920Z,0
2016-07-09T02:40:21.947Z,0
2016-07-09T02:41:21.952Z,0
2016-07-09T02:42:21.986Z,0
2016-07-09T02:43:22.015Z,0
2016-07-09T02:44:22.038Z,0
2016-07-09T02:45:22.085Z,0
2016-07-09T02:46:22.072Z,0
2016-07-09T02:47:22.074Z,0
2016-07-09T02:48:22.135Z,0
2016-07-09T02:49:22.137Z,0
2016-07-09T02:50:22.139Z,0
2016-07-09T02:51:22.158Z,0
2016-07-09T02:52:22.265Z,0
2016-07-09T02:53:22.202Z,0
2016-07-09T02:54:22.293Z,0
2016-07-09T02:55:22.237Z,0
2016-07-09T02:56:22.344Z,0
2016-07-09T02:57:22.284Z,0
2016-07-09T02:58:22.342Z,0
2016-07-09T02:59:22.312Z,0
2016-07-09T03:00:22.379Z,0
2016-07-09T03:01:22.370Z,0
2016-07-09T03:02:22.414Z,0
2016-07-09T03:03:22.407Z,0
2016-07-09T03:04:22.455Z,0
2016-07-09T03:05:22.444Z,0
2016-07-09T03:06:22.473Z,0
2016-07-09T03:07:22.485Z,0
2016-07-09T03:08:22.495Z,0
2016-07-09T03:09:22.532Z,0
2016-07-09T03:10:22.542Z,0
2016-07-09T03:11:22.555Z,0
2016-07-09T03:12:22.566Z,0
2016-07-09T03:13:22.592Z,0
2016-07-09T03:14:22.621Z,0
2016-07-09T03:15:22.639Z,0
2016-07-09T03:16:22.648Z,0
2016-07-09T03:17:22.672Z,0
2016-07-09T03:18:22.698Z,0
2016-07-09T03:19:22.721Z,0
2016-07-09T03:20:22.728Z,0
2016-07-09T03:21:22.757Z,0
2016-07-09T03:22:23.399Z,0
2016-07-09T03:23:23.422Z,0
2016-07-09T03:24:22.815Z,0
2016-07-09T03:25:22.827Z,0
2016-07-09T03:26:22.853Z,0
2016-07-09T03:27:22.868Z,0
2016-07-09T03:28:22.889Z,0
2016-07-09T03:29:22.896Z,0
2016-07-09T03:30:22.928Z,0
2016-07-09T03:31:22.945Z,5
2016-07-09T03:32:22.969Z,5
2016-07-09T03:33:22.991Z,5
2016-07-09T03:34:23.010Z,5
2016-07-09T03:35:23.025Z,5
2016-07-09T03:36:23.065Z,5
2016-07-09T03:37:23.067Z,5
2016-07-09T03:38:23.090Z,5
2016-07-09T03:39:23.104Z,5
2016-07-09T03:40:23.133Z,5
2016-07-09T03:41:23.137Z,5
2016-07-09T03:42:23.174Z,5
2016-07-09T03:43:23.180Z,5
2016-07-09T03:44:23.213Z,5
2016-07-09T03:45:23.226Z,5
2016-07-09T03:46:23.241Z,5
2016-07-09T03:47:23.255Z,5
2016-07-09T03:48:23.281Z,10
2016-07-09T03:49:23.298Z,10
2016-07-09T03:50:23.321Z,10
2016-07-09T03:51:23.343Z,15
2016-07-09T03:52:23.354Z,15
2016-07-09T03:53:23.416Z,15
2016-07-09T03:54:23.388Z,20
2016-07-09T03:55:23.414Z,20
2016-07-09T03:56:23.435Z,20
2016-07-09T03:57:23.463Z,20
2016-07-09T03:58:23.489Z,25
2016-07-09T03:59:23.487Z,25
2016-07-09T04:00:23.505Z,25
2016-07-09T04:01:23.527Z,25
2016-07-09T04:02:23.564Z,25
2016-07-09T04:03:23.604Z,25
2016-07-09T04:04:23.601Z,30
2016-07-09T04:05:23.611Z,30
2016-07-09T04:06:23.627Z,30
2016-07-09T04:07:23.654Z,30
2016-07-09T04:08:23.666Z,35
2016-07-09T04:09:23.694Z,35
2016-07-09T04:10:23.711Z,40
2016-07-09T04:11:23.731Z,40
2016-07-09T04:12:23.748Z,40
2016-07-09T04:13:23.781Z,45
2016-07-09T04:14:23.801Z,40
2016-07-09T04:15:23.806Z,45
2016-07-09T04:16:23.837Z,45
2016-07-09T04:17:23.851Z,45
2016-07-09T04:18:23.868Z,45
2016-07-09T04:19:23.890Z,50
2016-07-09T04:20:23.911Z,55
2016-07-09T04:21:23.926Z,55
2016-07-09T04:22:23.949Z,55
2016-07-09T04:23:23.958Z,55
2016-07-09T04:24:23.979Z,60
2016-07-09T04:25:24.005Z,60
2016-07-09T04:26:24.027Z,60
2016-07-09T04:27:24.049Z,55
2016-07-09T04:28:24.060Z,50
2016-07-09T04:29:24.084Z,55
2016-07-09T04:30:24.096Z,55
2016-07-09T04:31:24.125Z,50
2016-07-09T04:32:24.142Z,55
2016-07-09T04:33:24.167Z,55
2016-07-09T04:34:24.179Z,60
2016-07-09T04:35:24.197Z,65
2016-07-09T04:36:24.229Z,60
2016-07-09T04:37:24.242Z,60
2016-07-09T04:38:24.258Z,60
2016-07-09T04:39:24.279Z,60
2016-07-09T04:40:24.288Z,55
2016-07-09T04:41:24.318Z,60
2016-07-09T04:42:24.358Z,55
2016-07-09T04:43:24.364Z,55
2016-07-09T04:44:24.365Z,55
2016-07-09T04:45:24.404Z,55
2016-07-09T04:46:24.411Z,60
2016-07-09T04:47:24.437Z,60
2016-07-09T04:48:24.461Z,65
2016-07-09T04:49:24.470Z,60
2016-07-09T04:50:24.506Z,60
2016-07-09T04:51:24.518Z,55
2016-07-09T04:52:24.547Z,55
2016-07-09T04:53:24.560Z,55
2016-07-09T04:54:24.590Z,55
2016-07-09T04:55:24.586Z,55
2016-07-09T04:56:24.623Z,55
2016-07-09T04:57:24.637Z,55
2016-07-09T04:58:24.659Z,55
2016-07-09T04:59:24.683Z,55
2016-07-09T05:00:24.701Z,55
2016-07-09T05:01:24.728Z,50
2016-07-09T05:02:24.745Z,50
2016-07-09T05:03:24.754Z,50
2016-07-09T05:04:24.773Z,50
2016-07-09T05:05:24.794Z,50
2016-07-09T05:06:24.815Z,55
2016-07-09T05:07:24.834Z,55
2016-07-09T05:08:24.860Z,50
2016-07-09T05:09:24.874Z,55
2016-07-09T05:10:24.902Z,55
2016-07-09T05:11:24.911Z,60
2016-07-09T05:12:24.937Z,60
2016-07-09T05:13:24.961Z,65
2016-07-09T05:14:24.971Z,65
2016-07-09T05:15:24.986Z,65
2016-07-09T05:16:25.010Z,70
2016-07-09T05:17:25.035Z,70
2016-07-09T05:18:25.059Z,70
2016-07-09T05:19:25.074Z,80
2016-07-09T05:20:25.097Z,75
2016-07-09T05:21:25.113Z,75
2016-07-09T05:22:25.130Z,75
2016-07-09T05:23:25.153Z,80
2016-07-09T05:24:25.176Z,80
2016-07-09T05:25:25.204Z,85
2016-07-09T05:26:25.214Z,85
2016-07-09T05:27:25.230Z,85
2016-07-09T05:28:25.243Z,85
2016-07-09T05:29:25.276Z,85
2016-07-09T05:30:25.293Z,85
2016-07-09T05:31:25.323Z,90
2016-07-09T05:32:25.331Z,85
2016-07-09T05:33:25.360Z,90
2016-07-09T05:34:25.367Z,90
2016-07-09T05:35:25.405Z,90
2016-07-09T05:36:25.430Z,90
2016-07-09T05:37:25.433Z,90
2016-07-09T05:38:25.457Z,95
2016-07-09T05:39:25.481Z,95
2016-07-09T05:40:25.497Z,100
2016-07-09T05:41:25.521Z,100
2016-07-09T05:42:25.538Z,105
2016-07-09T05:43:25.545Z,105
2016-07-09T05:44:25.584Z,105
2016-07-09T05:45:25.583Z,110
2016-07-09T05:46:25.640Z,110
2016-07-09T05:47:25.640Z,115
2016-07-09T05:48:25.643Z,120
2016-07-09T05:49:25.685Z,120
2016-07-09T05:50:25.706Z,120
2016-07-09T05:51:25.712Z,120
2016-07-09T05:52:25.739Z,120
2016-07-09T05:53:25.758Z,120
2016-07-09T05:54:25.766Z,120
2016-07-09T05:55:25.790Z,125
2016-07-09T05:56:25.819Z,130
2016-07-09T05:57:25.840Z,130
2016-07-09T05:58:25.857Z,130
2016-07-09T05:59:25.879Z,175
2016-07-09T06:00:25.903Z,135
2016-07-09T06:01:25.922Z,135
2016-07-09T06:02:25.940Z,135
2016-07-09T06:03:25.955Z,135
2016-07-09T06:04:25.985Z,135
2016-07-09T06:05:26.004Z,145
2016-07-09T06:06:26.023Z,140
2016-07-09T06:07:26.033Z,140
2016-07-09T06:08:26.070Z,145
2016-07-09T06:09:26.081Z,145
2016-07-09T06:10:26.104Z,150
2016-07-09T06:11:26.126Z,155
2016-07-09T06:12:26.145Z,155
2016-07-09T06:13:26.170Z,155
2016-07-09T06:14:26.185Z,155
2016-07-09T06:15:26.222Z,165
2016-07-09T06:16:26.233Z,155
2016-07-09T06:17:26.242Z,160
2016-07-09T06:18:26.270Z,160
2016-07-09T06:19:26.289Z,170
2016-07-09T06:20:26.312Z,170
2016-07-09T06:21:26.329Z,170
2016-07-09T06:22:26.363Z,170
2016-07-09T06:23:26.375Z,175
2016-07-09T06:24:26.383Z,175
2016-07-09T06:25:26.409Z,175
2016-07-09T06:26:26.437Z,175
2016-07-09T06:27:26.458Z,170
2016-07-09T06:28:26.472Z,175
2016-07-09T06:29:26.506Z,170
2016-07-09T06:30:26.514Z,175
2016-07-09T06:31:26.558Z,175
2016-07-09T06:32:26.557Z,175
2016-07-09T06:33:26.580Z,175
2016-07-09T06:34:26.603Z,175
2016-07-09T06:35:26.622Z,175
2016-07-09T06:36:26.647Z,180
2016-07-09T06:37:26.666Z,185
2016-07-09T06:38:26.688Z,195
2016-07-09T06:39:26.711Z,195
2016-07-09T06:40:26.727Z,185
2016-07-09T06:41:26.766Z,180
2016-07-09T06:42:26.756Z,175
2016-07-09T06:43:26.806Z,165
2016-07-09T06:44:26.805Z,155
2016-07-09T06:45:26.835Z,135
2016-07-09T06:46:26.839Z,135
2016-07-09T06:47:26.876Z,135
2016-07-09T06:48:26.890Z,150
2016-07-09T06:49:26.911Z,180
2016-07-09T06:50:26.939Z,195
2016-07-09T06:51:26.960Z,180
2016-07-09T06:52:26.978Z,215
2016-07-09T06:53:26.995Z,195
2016-07-09T06:54:27.017Z,205
2016-07-09T06:55:27.033Z,205
2016-07-09T06:56:27.066Z,215
2016-07-09T06:57:27.075Z,205
2016-07-09T06:58:27.114Z,205
2016-07-09T06:59:27.123Z,195
2016-07-09T07:00:27.155Z,205
2016-07-09T07:01:27.162Z,245
2016-07-09T07:02:27.189Z,235
2016-07-09T07:03:27.202Z,185
2016-07-09T07:04:27.224Z,175
2016-07-09T07:05:27.252Z,185
2016-07-09T07:06:27.270Z,185
2016-07-09T07:07:27.287Z,195
2016-07-09T07:08:27.317Z,225
2016-07-09T07:09:27.327Z,170
2016-07-09T07:10:27.364Z,205
2016-07-09T07:11:27.379Z,220
2016-07-09T07:12:27.395Z,205
2016-07-09T07:13:27.419Z,215
2016-07-09T07:14:27.443Z,170
2016-07-09T07:15:27.465Z,230
2016-07-09T07:16:27.478Z,220
2016-07-09T07:17:27.504Z,175
2016-07-09T07:18:27.524Z,165
2016-07-09T07:19:27.555Z,220
2016-07-09T07:20:27.563Z,160
2016-07-09T07:21:27.592Z,160
2016-07-09T07:22:27.612Z,220
2016-07-09T07:23:27.636Z,235
2016-07-09T07:24:27.649Z,245
2016-07-09T07:25:27.668Z,250
2016-07-09T07:26:27.711Z,210
2016-07-09T07:27:27.711Z,260
2016-07-09T07:28:27.738Z,265
2016-07-09T07:29:27.751Z,265
2016-07-09T07:30:27.778Z,255
2016-07-09T07:31:27.800Z,230
2016-07-09T07:32:27.855Z,205
2016-07-09T07:33:27.852Z,225
2016-07-09T07:34:27.858Z,195
2016-07-09T07:35:27.893Z,235
2016-07-09T07:36:27.969Z,240
2016-07-09T07:37:27.929Z,250
2016-07-09T07:38:27.947Z,260
2016-07-09T07:39:27.978Z,235
2016-07-09T07:40:27.996Z,195
2016-07-09T07:41:28.030Z,195
2016-07-09T07:42:28.049Z,220
2016-07-09T07:43:28.050Z,230
2016-07-09T07:44:28.095Z,185
2016-07-09T07:45:28.101Z,195
2016-07-09T07:46:28.126Z,195
2016-07-09T07:47:28.141Z,200
2016-07-09T07:48:28.174Z,200
2016-07-09T07:49:28.199Z,245
2016-07-09T07:50:28.215Z,225
2016-07-09T07:51:28.251Z,230
2016-07-09T07:52:28.244Z,175
2016-07-09T07:53:28.282Z,165
2016-07-09T07:54:28.303Z,185
2016-07-09T07:55:28.335Z,225
2016-07-09T07:56:28.337Z,200
2016-07-09T07:57:28.365Z,200
2016-07-09T07:58:28.400Z,200
2016-07-09T07:59:28.411Z,200
2016-07-09T08:00:28.423Z,210
2016-07-09T08:01:28.462Z,245
2016-07-09T08:02:28.533Z,230
2016-07-09T08:03:28.489Z,185
2016-07-09T08:04:28.516Z,210
2016-07-09T08:05:28.549Z,240
2016-07-09T08:06:28.561Z,230
2016-07-09T08:07:28.579Z,195
2016-07-09T08:08:28.600Z,175
2016-07-09T08:09:28.628Z,210
2016-07-09T08:10:28.654Z,260
2016-07-09T08:11:28.675Z,250
2016-07-09T08:12:28.695Z,250
2016-07-09T08:13:28.734Z,240
2016-07-09T08:14:28.746Z,235
2016-07-09T08:15:28.776Z,220
2016-07-09T08:16:28.777Z,175
2016-07-09T08:17:28.798Z,175
2016-07-09T08:18:28.827Z,200
2016-07-09T08:19:28.844Z,180
2016-07-09T08:20:28.872Z,160
2016-07-09T08:21:28.886Z,165
2016-07-09T08:22:28.906Z,175
2016-07-09T08:23:28.934Z,205
2016-07-09T08:24:28.962Z,220
2016-07-09T08:25:28.971Z,260
2016-07-09T08:26:28.990Z,230
2016-07-09T08:27:29.027Z,195
2016-07-09T08:28:29.041Z,245
2016-07-09T08:29:29.068Z,260
2016-07-09T08:30:29.091Z,260
2016-07-09T08:31:29.103Z,260
2016-07-09T08:32:29.130Z,215
2016-07-09T08:33:29.144Z,225
2016-07-09T08:34:29.183Z,190
2016-07-09T08:35:29.186Z,185
2016-07-09T08:36:29.213Z,190
2016-07-09T08:37:29.236Z,190
2016-07-09T08:38:29.259Z,200
2016-07-09T08:39:29.289Z,260
2016-07-09T08:40:29.293Z,260
2016-07-09T08:41:29.326Z,260
2016-07-09T08:42:29.354Z,265
2016-07-09T08:43:29.372Z,245
2016-07-09T08:44:29.378Z,270
2016-07-09T08:45:29.411Z,270
2016-07-09T08:46:29.424Z,205
2016-07-09T08:47:29.459Z,265
2016-07-09T08:48:29.481Z,250
2016-07-09T08:49:29.500Z,230
2016-07-09T08:50:29.522Z,255
2016-07-09T08:51:29.551Z,225
2016-07-09T08:52:29.579Z,250
2016-07-09T08:53:29.593Z,260
2016-07-09T08:54:29.619Z,265
2016-07-09T08:55:29.635Z,260
2016-07-09T08:56:29.659Z,250
2016-07-09T08:57:29.681Z,195
2016-07-09T08:58:29.699Z,195
2016-07-09T08:59:29.726Z,210
2016-07-09T09:00:29.742Z,205
2016-07-09T09:01:29.791Z,225
2016-07-09T09:02:29.824Z,225
2016-07-09T09:03:29.832Z,215
2016-07-09T09:04:29.866Z,210
2016-07-09T09:05:29.880Z,205
2016-07-09T09:06:29.903Z,205
2016-07-09T09:07:29.923Z,195
2016-07-09T09:08:29.970Z,210
2016-07-09T09:09:29.980Z,250
2016-07-09T09:10:30.015Z,225
2016-07-09T09:11:30.025Z,225
2016-07-09T09:12:30.038Z,210
2016-07-09T09:13:30.078Z,205
2016-07-09T09:14:30.087Z,205
2016-07-09T09:15:30.103Z,205
2016-07-09T09:16:30.137Z,210
2016-07-09T09:17:30.152Z,230
2016-07-09T09:18:30.172Z,290
2016-07-09T09:19:30.191Z,235
2016-07-09T09:20:30.223Z,230
2016-07-09T09:21:30.233Z,255
2016-07-09T09:22:30.265Z,225
2016-07-09T09:23:30.291Z,230
2016-07-09T09:24:30.306Z,215
2016-07-09T09:25:30.321Z,205
2016-07-09T09:26:30.352Z,205
2016-07-09T09:27:30.381Z,195
2016-07-09T09:28:30.387Z,195
2016-07-09T09:29:30.427Z,195
2016-07-09T09:30:30.447Z,200
2016-07-09T09:31:30.469Z,220
2016-07-09T09:32:30.490Z,230
2016-07-09T09:33:30.503Z,205
2016-07-09T09:34:30.526Z,210
2016-07-09T09:35:30.587Z,210
2016-07-09T09:36:30.611Z,210
2016-07-09T09:37:30.654Z,255
2016-07-09T09:38:30.670Z,250
2016-07-09T09:39:30.689Z,245
2016-07-09T09:40:30.708Z,240
2016-07-09T09:41:30.717Z,220
2016-07-09T09:42:30.710Z,230
2016-07-09T09:43:30.734Z,270
2016-07-09T09:44:30.791Z,275
2016-07-09T09:45:30.779Z,280
2016-07-09T09:46:30.809Z,275
2016-07-09T09:47:30.871Z,275
2016-07-09T09:48:30.844Z,270
2016-07-09T09:49:30.869Z,260
2016-07-09T09:50:30.884Z,295
2016-07-09T09:51:30.918Z,295
2016-07-09T09:52:30.931Z,280
2016-07-09T09:53:30.949Z,265
2016-07-09T09:54:31.236Z,265
2016-07-09T09:55:30.999Z,275
2016-07-09T09:56:31.034Z,280
2016-07-09T09:57:31.047Z,275
2016-07-09T09:58:31.063Z,290
2016-07-09T09:59:31.089Z,280
2016-07-09T10:00:31.132Z,235
2016-07-09T10:01:31.132Z,275
2016-07-09T10:02:31.162Z,220
2016-07-09T10:03:31.189Z,225
2016-07-09T10:04:31.193Z,220
2016-07-09T10:05:31.238Z,230
2016-07-09T10:06:31.258Z,275
2016-07-09T10:07:31.277Z,310
2016-07-09T10:08:31.303Z,315
2016-07-09T10:09:31.313Z,310
2016-07-09T10:10:31.354Z,305
2016-07-09T10:11:31.366Z,305
2016-07-09T10:12:31.393Z,300
2016-07-09T10:13:31.413Z,290
2016-07-09T10:14:31.456Z,235
2016-07-09T10:15:31.450Z,245
2016-07-09T10:16:31.485Z,295
2016-07-09T10:17:31.505Z,265
2016-07-09T10:18:31.530Z,245
2016-07-09T10:19:31.565Z,295
2016-07-09T10:20:31.566Z,290
2016-07-09T10:21:31.615Z,270
2016-07-09T10:22:31.625Z,255
2016-07-09T10:23:31.655Z,260
2016-07-09T10:24:31.655Z,265
2016-07-09T10:25:31.718Z,280
2016-07-09T10:26:31.715Z,250
2016-07-09T10:27:31.740Z,245
2016-07-09T10:28:31.758Z,300
2016-07-09T10:29:31.784Z,250
2016-07-09T10:30:31.820Z,240
2016-07-09T10:31:31.831Z,285
2016-07-09T10:32:31.860Z,260
2016-07-09T10:33:31.886Z,280
2016-07-09T10:34:31.902Z,290
2016-07-09T10:35:31.928Z,295
2016-07-09T10:36:31.950Z,290
2016-07-09T10:37:31.985Z,290
2016-07-09T10:38:32.013Z,270
2016-07-09T10:39:32.021Z,225
2016-07-09T10:40:32.058Z,230
2016-07-09T10:41:32.069Z,230
2016-07-09T10:42:32.084Z,300
2016-07-09T10:43:32.109Z,290
2016-07-09T10:44:32.150Z,285
2016-07-09T10:45:32.159Z,290
2016-07-09T10:46:32.183Z,290
2016-07-09T10:47:32.201Z,290
2016-07-09T10:48:32.227Z,290
2016-07-09T10:49:32.251Z,285
2016-07-09T10:50:32.273Z,275
2016-07-09T10:51:32.296Z,280
2016-07-09T10:52:32.329Z,270
2016-07-09T10:53:32.611Z,275
2016-07-09T10:54:32.361Z,280
2016-07-09T10:55:32.394Z,275
2016-07-09T10:56:32.408Z,225
2016-07-09T10:57:32.442Z,285
2016-07-09T10:58:32.458Z,275
2016-07-09T10:59:32.480Z,265
2016-07-09T11:00:32.506Z,265
2016-07-09T11:01:32.537Z,275
2016-07-09T11:02:32.569Z,280
2016-07-09T11:03:32.562Z,265
2016-07-09T11:04:32.617Z,210
2016-07-09T11:05:32.617Z,280
2016-07-09T11:06:32.649Z,280
2016-07-09T11:07:32.669Z,210
2016-07-09T11:08:32.693Z,255
2016-07-09T11:09:32.715Z,210
2016-07-09T11:10:32.736Z,220
2016-07-09T11:11:32.756Z,265
2016-07-09T11:12:32.769Z,285
2016-07-09T11:13:32.811Z,250
2016-07-09T11:14:32.827Z,305
2016-07-09T11:15:32.860Z,260
2016-07-09T11:16:32.878Z,265
2016-07-09T11:17:32.893Z,240
2016-07-09T11:18:32.923Z,225
2016-07-09T11:19:32.940Z,210
2016-07-09T11:20:32.974Z,210
2016-07-09T11:21:32.984Z,270
2016-07-09T11:22:33.004Z,270
2016-07-09T11:23:33.046Z,270
2016-07-09T11:24:33.060Z,280
2016-07-09T11:25:33.084Z,280
2016-07-09T11:26:33.098Z,205
2016-07-09T11:27:33.142Z,205
2016-07-09T11:28:33.147Z,220
2016-07-09T11:29:33.181Z,280
2016-07-09T11:30:33.193Z,285
2016-07-09T11:31:33.227Z,295
2016-07-09T11:32:33.251Z,290
2016-07-09T11:33:33.254Z,290
2016-07-09T11:34:33.286Z,290
2016-07-09T11:35:33.317Z,290
2016-07-09T11:36:33.328Z,290
2016-07-09T11:37:33.353Z,290
2016-07-09T11:38:33.383Z,285
2016-07-09T11:39:33.411Z,280
2016-07-09T11:40:33.424Z,280
2016-07-09T11:41:33.449Z,290
2016-07-09T11:42:33.467Z,290
2016-07-09T11:43:33.500Z,295
2016-07-09T11:44:33.526Z,295
2016-07-09T11:45:33.546Z,285
2016-07-09T11:46:33.574Z,290
2016-07-09T11:47:33.602Z,285
2016-07-09T11:48:33.620Z,285
2016-07-09T11:49:33.636Z,285
2016-07-09T11:50:33.677Z,300
2016-07-09T11:51:33.682Z,310
2016-07-09T11:52:33.711Z,315
2016-07-09T11:53:33.737Z,295
2016-07-09T11:54:33.773Z,290
2016-07-09T11:55:33.786Z,320
2016-07-09T11:56:33.819Z,320
2016-07-09T11:57:33.827Z,325
2016-07-09T11:58:33.854Z,330
2016-07-09T11:59:33.897Z,325
2016-07-09T12:00:33.904Z,295
2016-07-09T12:01:33.937Z,280
2016-07-09T12:02:33.953Z,230
2016-07-09T12:03:33.991Z,220
2016-07-09T12:04:33.994Z,220
2016-07-09T12:05:34.025Z,225
2016-07-09T12:06:34.035Z,230
2016-07-09T12:07:34.071Z,240
2016-07-09T12:08:34.120Z,320
2016-07-09T12:09:34.114Z,325
2016-07-09T12:10:34.143Z,270
2016-07-09T12:11:34.167Z,330
2016-07-09T12:12:34.209Z,330
2016-07-09T12:13:34.213Z,325
2016-07-09T12:14:34.232Z,325
2016-07-09T12:15:34.268Z,310
2016-07-09T12:16:34.286Z,310
2016-07-09T12:17:34.309Z,235
2016-07-09T12:18:34.337Z,225
2016-07-09T12:19:34.353Z,215
2016-07-09T12:20:34.381Z,230
2016-07-09T12:21:34.414Z,270
2016-07-09T12:22:34.429Z,285
2016-07-09T12:23:34.475Z,200
2016-07-09T12:24:34.490Z,200
2016-07-09T12:25:34.496Z,250
2016-07-09T12:26:34.528Z,260
2016-07-09T12:27:34.554Z,205
2016-07-09T12:28:34.579Z,285
2016-07-09T12:29:34.598Z,295
2016-07-09T12:30:34.611Z,280
2016-07-09T12:31:34.650Z,285
2016-07-09T12:32:34.667Z,300
2016-07-09T12:33:34.689Z,280
2016-07-09T12:34:34.716Z,310
2016-07-09T12:35:34.748Z,310
2016-07-09T12:36:34.760Z,300
2016-07-09T12:37:34.790Z,295
2016-07-09T12:38:34.826Z,290
2016-07-09T12:39:34.828Z,295
2016-07-09T12:40:34.879Z,290
2016-07-09T12:41:34.880Z,240
2016-07-09T12:42:34.918Z,290
2016-07-09T12:43:34.930Z,290
2016-07-09T12:44:34.963Z,270
2016-07-09T12:45:34.973Z,205
2016-07-09T12:46:34.995Z,290
2016-07-09T12:47:35.033Z,290
2016-07-09T12:48:35.058Z,285
2016-07-09T12:49:35.083Z,285
2016-07-09T12:50:35.087Z,285
2016-07-09T12:51:35.125Z,280
2016-07-09T12:52:35.145Z,290
2016-07-09T12:53:35.175Z,235
2016-07-09T12:54:35.195Z,210
2016-07-09T12:55:35.216Z,270
2016-07-09T12:56:35.237Z,280
2016-07-09T12:57:35.285Z,280
2016-07-09T12:58:35.299Z,275
2016-07-09T12:59:35.307Z,275
2016-07-09T13:00:35.340Z,280
2016-07-09T13:01:35.377Z,295
2016-07-09T13:02:35.383Z,285
2016-07-09T13:03:35.403Z,295
2016-07-09T13:04:35.445Z,300
2016-07-09T13:05:35.457Z,305
2016-07-09T13:06:35.467Z,305
2016-07-09T13:07:35.503Z,305
2016-07-09T13:08:35.533Z,245
2016-07-09T13:09:35.557Z,295
2016-07-09T13:10:35.576Z,235
2016-07-09T13:11:35.592Z,320
2016-07-09T13:12:35.614Z,320
2016-07-09T13:13:35.655Z,305
2016-07-09T13:14:35.671Z,315
2016-07-09T13:15:35.699Z,300
2016-07-09T13:16:35.714Z,290
2016-07-09T13:17:35.748Z,290
2016-07-09T13:18:35.781Z,295
2016-07-09T13:19:35.790Z,295
2016-07-09T13:20:35.817Z,300
2016-07-09T13:21:35.842Z,245
2016-07-09T13:22:35.875Z,240
2016-07-09T13:23:35.888Z,300
2016-07-09T13:24:35.925Z,310
2016-07-09T13:25:35.933Z,250
2016-07-09T13:26:35.965Z,260
2016-07-09T13:27:35.992Z,335
2016-07-09T13:28:36.017Z,325
2016-07-09T13:29:36.038Z,255
2016-07-09T13:30:36.066Z,245
2016-07-09T13:31:36.092Z,240
2016-07-09T13:32:36.114Z,245
2016-07-09T13:33:36.148Z,240
2016-07-09T13:34:36.178Z,240
2016-07-09T13:35:36.186Z,245
2016-07-09T13:36:36.212Z,265
2016-07-09T13:37:36.248Z,315
2016-07-09T13:38:36.269Z,215
2016-07-09T13:39:36.289Z,205
2016-07-09T13:40:36.314Z,200
2016-07-09T13:41:36.342Z,205
2016-07-09T13:42:36.360Z,205
2016-07-09T13:43:36.384Z,225
2016-07-09T13:44:36.409Z,305
2016-07-09T13:45:36.439Z,325
2016-07-09T13:46:36.465Z,295
2016-07-09T13:47:36.492Z,230
2016-07-09T13:48:36.513Z,320
2016-07-09T13:49:36.537Z,270
2016-07-09T13:50:36.615Z,260
2016-07-09T13:51:36.574Z,240
2016-07-09T13:52:36.608Z,235
2016-07-09T13:53:36.630Z,325
2016-07-09T13:54:36.658Z,335
2016-07-09T13:55:36.685Z,335
2016-07-09T13:56:36.710Z,330
2016-07-09T13:57:36.731Z,330
2016-07-09T13:58:36.757Z,325
2016-07-09T13:59:36.771Z,325
2016-07-09T14:00:36.796Z,330
2016-07-09T14:01:36.833Z,340
2016-07-09T14:02:36.871Z,345
2016-07-09T14:03:36.885Z,330
2016-07-09T14:04:36.890Z,250
2016-07-09T14:05:36.934Z,240